Time;durP1;ratioP1;P1;durP2;ratioP2;P2;SDS_P1;SDS_P2;PMS_P1;PMS_P2;Temp;Humidity;BMP_temperature;BMP_pressure;BME280_temperature;BME280_humidity;BME280_pressure;Samples;Min_cycle;Max_cycle;Signal;HPM_P1;HPM_P2
2023/04/14 00:01:00;;;;;;;;;;;;;;;5.42;86.62;96361.64;110775;1241;69637;-82
2023/04/14 00:03:29;;;;;;;;;;;;;;;5.34;86.61;96364.45;110605;1242;59734;-82
2023/04/14 00:05:59;;;;;;;;;;;;;;;5.23;87.30;96368.29;110688;1241;59697;-82
2023/04/14 00:08:28;;;;;;;;;;;;;;;5.12;88.56;96371.80;110422;1242;71175;-82
2023/04/14 00:10:56;;;;;;;;;;;;;;;5.03;89.04;96374.27;110612;1242;69042;-82
2023/04/14 00:13:26;;;;;;;;;;;;;;;4.98;88.93;96369.98;110837;1242;68827;-83
2023/04/14 00:15:55;;;;;;;;;;;;;;;4.91;89.52;96364.54;110563;1241;60162;-82
2023/04/14 00:18:25;;;;;;;;;;;;;;;4.82;89.25;96360.47;110691;1242;59589;-82
2023/04/14 00:20:54;;;;;;;;;;;;;;;4.73;88.52;96359.91;110720;1241;71207;-83
2023/04/14 00:23:24;;;;;;;;;;;;;;;4.66;88.42;96356.36;110841;1238;69130;-82
2023/04/14 00:25:54;;;;;;;;;;;;;;;4.64;88.50;96360.16;111872;1238;69001;-83
2023/04/14 00:28:24;;;;;;;;;;;;;;;4.60;89.53;96359.66;111933;1242;59649;-83
2023/04/14 00:30:53;;;;;;;;;;;;;;;4.56;88.93;96358.93;111481;1241;59666;-83
2023/04/14 00:33:22;;;;;;;;;;;;;;;4.53;89.24;96352.38;110587;1239;70636;-83
2023/04/14 00:35:51;;;;;;;;;;;;;;;4.52;91.78;96347.63;110537;1241;69767;-83
2023/04/14 00:38:21;;;;;;;;;;;;;;;4.49;89.76;96344.55;110616;1244;68481;-84
2023/04/14 00:40:51;;;;;;;;;;;;;;;4.48;87.99;96341.64;110864;1241;59706;-82
2023/04/14 00:43:20;;;;;;;;;;;;;;;4.50;87.51;96346.73;110926;1243;59693;-83
2023/04/14 00:45:51;;;;;;;;;;;;;;;4.52;86.24;96349.83;110862;1240;71365;-82
2023/04/14 00:48:22;;;;;;;;;;;;;;;4.56;86.44;96354.42;110656;1238;69536;-83
2023/04/14 00:50:52;;;;;;;;;;;;;;;4.58;87.01;96357.73;110600;1242;68301;-83
2023/04/14 00:53:22;;;;;;;;;;;;;;;4.58;88.82;96359.29;110731;1238;59722;-83
2023/04/14 00:55:53;;;;;;;;;;;;;;;4.46;90.37;96357.55;110470;1242;59747;-82
2023/04/14 00:58:25;;;;;;;;;;;;;;;4.34;89.89;96349.86;110553;1240;70280;-82
2023/04/14 01:00:55;;;;;;;;;;;;;;;4.27;92.54;96351.14;110657;1242;68426;-82
2023/04/14 01:03:25;;;;;;;;;;;;;;;4.25;93.74;96358.55;110541;1238;69100;-82
2023/04/14 01:05:55;;;;;;;;;;;;;;;4.22;93.56;96360.77;110585;1241;59734;-82
2023/04/14 01:08:25;;;;;;;;;;;;;;;4.21;93.32;96358.61;110406;1242;59692;-82
2023/04/14 01:11:16;;;;;;;;;;;;;;;4.19;94.25;96359.28;110784;1239;71238;-82
2023/04/14 01:13:45;;;;;;;;;;;;;;;4.18;94.41;96361.91;110641;1240;69268;-82
2023/04/14 01:16:24;;;;;;;;;;;;;;;4.18;94.05;96360.19;110565;1241;69686;-82
2023/04/14 01:19:14;;;;;;;;;;;;;;;4.20;92.24;96354.34;110535;1238;59740;-82
2023/04/14 01:21:46;;;;;;;;;;;;;;;4.24;92.37;96344.80;110562;1241;59633;-82
2023/04/14 01:24:33;;;;;;;;;;;;;;;4.29;91.62;96347.59;110635;1240;71354;-83
2023/04/14 01:27:19;;;;;;;;;;;;;;;4.31;90.37;96346.89;110511;1242;69108;-82
2023/04/14 01:29:55;;;;;;;;;;;;;;;4.34;89.07;96340.68;110605;1238;67695;-82
2023/04/14 01:32:27;;;;;;;;;;;;;;;4.36;89.40;96344.71;110461;1243;59760;-82
2023/04/14 01:35:04;;;;;;;;;;;;;;;4.32;91.68;96347.52;110508;1242;60110;-82
2023/04/14 01:37:38;;;;;;;;;;;;;;;4.26;91.42;96345.34;110550;1239;71348;-83
2023/04/14 01:40:13;;;;;;;;;;;;;;;4.24;91.07;96343.07;110683;1241;68514;-82
2023/04/14 01:42:55;;;;;;;;;;;;;;;4.27;90.66;96340.14;111843;1238;68850;-83
2023/04/14 01:45:31;;;;;;;;;;;;;;;4.34;90.28;96339.65;111675;1241;59599;-82
2023/04/14 01:48:02;;;;;;;;;;;;;;;4.40;90.23;96343.91;110904;1241;59690;-82
2023/04/14 01:50:35;;;;;;;;;;;;;;;4.45;89.87;96343.92;110588;1241;70662;-82
2023/04/14 01:53:06;;;;;;;;;;;;;;;4.48;90.88;96342.18;110536;1238;68298;-82
2023/04/14 01:55:37;;;;;;;;;;;;;;;4.49;90.96;96334.87;110613;1241;68513;-82
2023/04/14 01:58:08;;;;;;;;;;;;;;;4.50;90.81;96335.84;110370;1242;59727;-82
2023/04/14 02:00:39;;;;;;;;;;;;;;;4.52;89.39;96330.70;110748;1241;59684;-82
2023/04/14 02:03:09;;;;;;;;;;;;;;;4.54;89.51;96329.40;110597;1240;71877;-82
2023/04/14 02:05:41;;;;;;;;;;;;;;;4.52;89.73;96326.58;110676;1247;69357;-82
2023/04/14 02:08:13;;;;;;;;;;;;;;;4.50;89.48;96323.27;110519;1242;68664;-83
2023/04/14 02:10:44;;;;;;;;;;;;;;;4.46;89.58;96319.34;110609;1239;59746;-82
2023/04/14 02:13:17;;;;;;;;;;;;;;;4.44;89.95;96317.13;110657;1241;59727;-82
2023/04/14 02:15:49;;;;;;;;;;;;;;;4.42;90.73;96321.91;110450;1242;71224;-83
2023/04/14 02:18:21;;;;;;;;;;;;;;;4.40;91.47;96323.22;110603;1240;69141;-82
2023/04/14 02:20:53;;;;;;;;;;;;;;;4.41;92.84;96324.58;110479;1248;69299;-82
2023/04/14 02:23:22;;;;;;;;;;;;;;;4.41;92.63;96318.86;110445;1242;59663;-83
2023/04/14 02:25:56;;;;;;;;;;;;;;;4.40;93.61;96311.14;110605;1242;59735;-83
2023/04/14 02:28:32;;;;;;;;;;;;;;;4.41;93.26;96305.91;110427;1238;70786;-82
2023/04/14 02:31:09;;;;;;;;;;;;;;;4.43;92.53;96304.79;110556;1242;69221;-82
2023/04/14 02:33:39;;;;;;;;;;;;;;;4.42;92.03;96303.58;110643;1242;68689;-82
2023/04/14 02:36:08;;;;;;;;;;;;;;;4.43;92.26;96306.13;110597;1240;59643;-81
2023/04/14 02:38:59;;;;;;;;;;;;;;;4.45;93.54;96307.73;110421;1242;58889;-81
2023/04/14 02:41:30;;;;;;;;;;;;;;;4.47;92.99;96301.54;110628;1241;71276;-82
2023/04/14 02:44:03;;;;;;;;;;;;;;;4.48;92.82;96303.86;110526;1242;68380;-81
2023/04/14 02:46:38;;;;;;;;;;;;;;;4.50;92.35;96293.40;110484;1242;69329;-81
2023/04/14 02:49:09;;;;;;;;;;;;;;;4.51;91.74;96290.23;110482;1241;59721;-81
2023/04/14 02:51:43;;;;;;;;;;;;;;;4.53;91.82;96286.63;110525;1242;59702;-81
2023/04/14 02:54:14;;;;;;;;;;;;;;;4.55;91.00;96285.63;110494;1239;71373;-82
2023/04/14 02:56:46;;;;;;;;;;;;;;;4.59;89.91;96282.10;110813;1238;69221;-81
2023/04/14 02:59:24;;;;;;;;;;;;;;;4.65;90.45;96285.73;112438;1238;68518;-81
2023/04/14 03:02:08;;;;;;;;;;;;;;;4.62;93.30;96290.05;112229;1242;58119;-82
2023/04/14 03:04:41;;;;;;;;;;;;;;;4.55;92.53;96297.25;111166;1240;58776;-82
2023/04/14 03:07:32;;;;;;;;;;;;;;;4.33;92.67;96304.16;110433;1248;70465;-82
2023/04/14 03:10:03;;;;;;;;;;;;;;;4.17;94.26;96307.98;110744;1240;69770;-81
2023/04/14 03:12:34;;;;;;;;;;;;;;;4.07;95.43;96310.72;110698;1238;69704;-82
2023/04/14 03:15:06;;;;;;;;;;;;;;;4.00;96.76;96317.34;110532;1242;59733;-81
2023/04/14 03:17:36;;;;;;;;;;;;;;;3.96;97.59;96313.61;110617;1242;59745;-81
2023/04/14 03:20:08;;;;;;;;;;;;;;;3.94;97.12;96306.21;110521;1239;71227;-80
2023/04/14 03:22:39;;;;;;;;;;;;;;;3.90;96.07;96300.94;110627;1240;69696;-82
2023/04/14 03:25:11;;;;;;;;;;;;;;;3.90;92.89;96303.84;110474;1247;69334;-82
2023/04/14 03:27:45;;;;;;;;;;;;;;;3.90;96.02;96308.15;110573;1238;59728;-81
2023/04/14 03:30:16;;;;;;;;;;;;;;;3.90;97.10;96318.19;110568;1241;59640;-82
2023/04/14 03:32:48;;;;;;;;;;;;;;;3.89;96.15;96316.70;110640;1238;71400;-81
2023/04/14 03:35:20;;;;;;;;;;;;;;;3.87;92.27;96314.40;110561;1242;69021;-82
2023/04/14 03:37:50;;;;;;;;;;;;;;;3.89;91.83;96313.09;110390;1242;68188;-82
2023/04/14 03:40:21;;;;;;;;;;;;;;;3.91;93.00;96310.48;110470;1242;59724;-81
2023/04/14 03:42:51;;;;;;;;;;;;;;;3.95;93.45;96310.42;110452;1242;59678;-82
2023/04/14 03:45:22;;;;;;;;;;;;;;;3.97;93.57;96302.89;110377;1240;71352;-82
2023/04/14 03:47:56;;;;;;;;;;;;;;;4.03;94.18;96298.68;110464;1242;69851;-82
2023/04/14 03:50:27;;;;;;;;;;;;;;;4.18;94.21;96297.95;110654;1240;68306;-82
2023/04/14 03:53:00;;;;;;;;;;;;;;;4.31;94.29;96301.24;110579;1241;59706;-82
2023/04/14 03:55:30;;;;;;;;;;;;;;;4.38;93.51;96306.31;110509;1241;59668;-82
2023/04/14 03:58:01;;;;;;;;;;;;;;;4.41;93.33;96301.44;110587;1241;70657;-83
2023/04/14 04:00:31;;;;;;;;;;;;;;;4.37;93.32;96295.34;110474;1238;69077;-83
2023/04/14 04:03:00;;;;;;;;;;;;;;;4.30;95.36;96289.38;110430;1242;69877;-83
2023/04/14 04:05:29;;;;;;;;;;;;;;;4.27;95.72;96288.73;110493;1241;59702;-82
2023/04/14 04:08:01;;;;;;;;;;;;;;;4.26;96.20;96288.23;110554;1241;60104;-83
2023/04/14 04:10:34;;;;;;;;;;;;;;;4.27;96.45;96287.14;110513;1238;72016;-82
2023/04/14 04:13:09;;;;;;;;;;;;;;;4.33;93.74;96276.44;110939;1242;69184;-84
2023/04/14 04:15:40;;;;;;;;;;;;;;;4.45;93.80;96279.40;111896;1238;69892;-84
2023/04/14 04:18:14;;;;;;;;;;;;;;;4.54;94.60;96277.97;111907;1238;59663;-84
2023/04/14 04:20:45;;;;;;;;;;;;;;;4.57;94.50;96278.09;110582;1239;59678;-83
2023/04/14 04:23:16;;;;;;;;;;;;;;;4.57;94.40;96276.02;110672;1241;71215;-81
2023/04/14 04:25:46;;;;;;;;;;;;;;;4.55;95.75;96272.55;110713;1240;69680;-78
2023/04/14 04:28:21;;;;;;;;;;;;;;;4.51;97.02;96268.98;110640;1241;68676;-79
2023/04/14 04:30:51;;;;;;;;;;;;;;;4.51;96.56;96265.19;110431;1242;59755;-79
2023/04/14 04:33:20;;;;;;;;;;;;;;;4.52;97.09;96257.55;110423;1243;59690;-79
2023/04/14 04:35:51;;;;;;;;;;;;;;;4.53;96.55;96254.05;110698;1238;70691;-80
2023/04/14 04:38:22;;;;;;;;;;;;;;;4.54;95.96;96251.02;110412;1242;69280;-81
2023/04/14 04:40:52;;;;;;;;;;;;;;;4.58;95.45;96247.63;110403;1242;70289;-81
2023/04/14 04:43:24;;;;;;;;;;;;;;;4.72;96.72;96243.98;110413;1242;59701;-81
2023/04/14 04:46:12;;;;;;;;;;;;;;;4.81;94.70;96241.46;110555;1243;59660;-80
2023/04/14 04:48:40;;;;;;;;;;;;;;;4.89;93.67;96239.35;110733;1240;71937;-81
2023/04/14 04:51:10;;;;;;;;;;;;;;;4.98;92.69;96240.77;110580;1238;68523;-81
2023/04/14 04:53:40;;;;;;;;;;;;;;;5.07;92.12;96246.73;110490;1241;69209;-81
2023/04/14 04:56:08;;;;;;;;;;;;;;;5.09;93.03;96252.14;110552;1241;59670;-81
2023/04/14 04:58:37;;;;;;;;;;;;;;;5.01;94.11;96258.88;110535;1238;59738;-81
2023/04/14 05:01:06;;;;;;;;;;;;;;;4.96;94.50;96256.12;110599;1244;71380;-81
2023/04/14 05:03:36;;;;;;;;;;;;;;;4.97;95.18;96252.45;110629;1238;69348;-81
2023/04/14 05:06:05;;;;;;;;;;;;;;;5.03;95.35;96255.83;110521;1240;69278;-81
2023/04/14 05:08:33;;;;;;;;;;;;;;;5.15;94.97;96252.96;110525;1238;59658;-81
2023/04/14 05:11:02;;;;;;;;;;;;;;;5.26;95.02;96256.27;110616;1241;59731;-81
2023/04/14 05:13:31;;;;;;;;;;;;;;;5.38;94.85;96261.48;110625;1241;71609;-81
2023/04/14 05:16:07;;;;;;;;;;;;;;;5.56;93.06;96259.85;110697;1241;68502;-81
2023/04/14 05:18:36;;;;;;;;;;;;;;;5.76;92.20;96255.20;110518;1241;70275;-81
2023/04/14 05:21:05;;;;;;;;;;;;;;;5.92;92.69;96249.40;110532;1238;59681;-80
2023/04/14 05:23:35;;;;;;;;;;;;;;;6.13;92.38;96247.35;110492;1242;59689;-81
2023/04/14 05:26:07;;;;;;;;;;;;;;;6.36;91.80;96255.11;111185;1240;71492;-80
2023/04/14 05:28:55;;;;;;;;;;;;;;;6.66;90.99;96263.69;111597;1240;69822;-79
2023/04/14 05:31:24;;;;;;;;;;;;;;;6.86;89.37;96259.89;110588;1241;69400;-77
2023/04/14 05:33:53;;;;;;;;;;;;;;;7.09;90.09;96258.44;110652;1241;59702;-77
2023/04/14 05:36:22;;;;;;;;;;;;;;;7.30;89.34;96250.91;110589;1241;59675;-77
2023/04/14 05:38:50;;;;;;;;;;;;;;;7.54;88.61;96244.52;110646;1240;70508;-77
2023/04/14 05:41:20;;;;;;;;;;;;;;;7.85;87.39;96242.09;110570;1238;69133;-76
2023/04/14 05:43:49;;;;;;;;;;;;;;;8.26;85.76;96243.48;110568;1240;69765;-77
2023/04/14 05:46:18;;;;;;;;;;;;;;;8.73;85.20;96245.33;110655;1238;59741;-77
2023/04/14 05:48:46;;;;;;;;;;;;;;;9.07;84.14;96246.73;110741;1240;59689;-78
2023/04/14 05:51:15;;;;;;;;;;;;;;;9.27;81.19;96241.23;110960;1238;71313;-77
2023/04/14 05:53:44;;;;;;;;;;;;;;;9.41;80.83;96238.64;111253;1241;68450;-76
2023/04/14 05:56:12;;;;;;;;;;;;;;;9.44;80.23;96231.44;110674;1238;68315;-77
2023/04/14 05:58:41;;;;;;;;;;;;;;;9.56;78.69;96219.20;110504;1238;59688;-77
2023/04/14 06:01:09;;;;;;;;;;;;;;;9.86;78.71;96216.09;110720;1238;59702;-77
2023/04/14 06:03:38;;;;;;;;;;;;;;;10.17;78.46;96222.01;110577;1240;71791;-76
2023/04/14 06:06:08;;;;;;;;;;;;;;;10.35;77.51;96224.39;110643;1239;69301;-75
2023/04/14 06:08:36;;;;;;;;;;;;;;;10.23;76.35;96220.64;110485;1241;70084;-76
2023/04/14 06:11:05;;;;;;;;;;;;;;;10.28;76.06;96221.95;110690;1248;60140;-77
2023/04/14 06:13:34;;;;;;;;;;;;;;;10.16;75.48;96220.85;110518;1244;59689;-76
2023/04/14 06:16:03;;;;;;;;;;;;;;;10.17;75.23;96224.29;110490;1240;71794;-75
2023/04/14 06:18:32;;;;;;;;;;;;;;;10.09;74.42;96227.39;110580;1238;67659;-77
2023/04/14 06:21:01;;;;;;;;;;;;;;;10.01;73.89;96226.27;110737;1238;69136;-78
2023/04/14 06:23:30;;;;;;;;;;;;;;;9.81;74.05;96229.02;110657;1241;59737;-77
2023/04/14 06:25:59;;;;;;;;;;;;;;;9.86;73.23;96223.23;110586;1240;59621;-76
2023/04/14 06:28:27;;;;;;;;;;;;;;;9.98;73.91;96218.31;110629;1242;70731;-77
2023/04/14 06:30:56;;;;;;;;;;;;;;;10.15;73.27;96215.00;110562;1238;68561;-76
2023/04/14 06:33:24;;;;;;;;;;;;;;;10.40;71.86;96212.98;110666;1242;69969;-77
2023/04/14 06:35:54;;;;;;;;;;;;;;;10.92;69.74;96213.38;110683;1241;59767;-77
2023/04/14 06:38:24;;;;;;;;;;;;;;;11.58;68.12;96204.92;112095;1240;59705;-76
2023/04/14 06:40:52;;;;;;;;;;;;;;;12.29;66.07;96201.19;110650;1240;71864;-76
2023/04/14 06:43:21;;;;;;;;;;;;;;;12.81;63.25;96200.11;110784;1240;69198;-76
2023/04/14 06:45:49;;;;;;;;;;;;;;;13.45;63.10;96195.17;110560;1238;69291;-77
2023/04/14 06:48:18;;;;;;;;;;;;;;;14.02;61.81;96190.98;110503;1238;59675;-77
2023/04/14 06:50:54;;;;;;;;;;;;;;;14.40;59.84;96193.80;110564;1241;59698;-77
2023/04/14 06:53:22;;;;;;;;;;;;;;;14.76;58.40;96196.24;110712;1241;72438;-76
2023/04/14 06:55:57;;;;;;;;;;;;;;;15.27;59.48;96194.33;110540;1240;69368;-74
2023/04/14 06:58:27;;;;;;;;;;;;;;;15.43;55.47;96187.06;110487;1241;69326;-74
2023/04/14 07:00:56;;;;;;;;;;;;;;;15.51;56.21;96182.45;110549;1239;59689;-75
2023/04/14 07:03:25;;;;;;;;;;;;;;;15.54;57.28;96180.52;110635;1240;59630;-75
2023/04/14 07:06:00;;;;;;;;;;;;;;;15.62;57.50;96171.97;110649;1240;70593;-75
2023/04/14 07:08:31;;;;;;;;;;;;;;;15.64;55.04;96170.45;110580;1241;69324;-76
2023/04/14 07:11:01;;;;;;;;;;;;;;;15.77;56.49;96169.60;110580;1240;69565;-76
2023/04/14 07:13:29;;;;;;;;;;;;;;;15.81;54.70;96166.18;110620;1238;59753;-76
2023/04/14 07:15:59;;;;;;;;;;;;;;;15.85;54.62;96166.42;110598;1240;59678;-77
2023/04/14 07:18:28;;;;;;;;;;;;;;;15.87;54.12;96165.62;110390;1242;71974;-75
2023/04/14 07:20:57;;;;;;;;;;;;;;;15.89;55.62;96165.02;110607;1238;69271;-76
2023/04/14 07:23:26;;;;;;;;;;;;;;;15.83;55.28;96161.85;110595;1242;69290;-76
2023/04/14 07:25:56;;;;;;;;;;;;;;;15.75;55.40;96158.54;110395;1242;59745;-75
2023/04/14 07:28:25;;;;;;;;;;;;;;;15.78;54.05;96163.17;110581;1238;59737;-76
2023/04/14 07:30:54;;;;;;;;;;;;;;;15.75;54.30;96161.54;110725;1238;71957;-77
2023/04/14 07:33:23;;;;;;;;;;;;;;;15.68;54.32;96159.70;110575;1241;69229;-74
2023/04/14 07:35:51;;;;;;;;;;;;;;;15.55;54.51;96154.92;110643;1238;69925;-76
2023/04/14 07:38:31;;;;;;;;;;;;;;;15.53;53.97;96150.83;110677;1238;59711;-75
2023/04/14 07:41:02;;;;;;;;;;;;;;;15.55;54.08;96150.38;110710;1241;59050;-78
2023/04/14 07:43:34;;;;;;;;;;;;;;;15.52;53.24;96145.83;111787;1238;71462;-76
2023/04/14 07:46:04;;;;;;;;;;;;;;;15.61;52.76;96143.28;111775;1240;69032;-76
2023/04/14 07:48:34;;;;;;;;;;;;;;;15.63;51.14;96144.57;110548;1241;69879;-78
2023/04/14 07:51:03;;;;;;;;;;;;;;;15.73;50.65;96146.14;110595;1241;59713;-78
2023/04/14 07:53:33;;;;;;;;;;;;;;;15.92;50.25;96141.91;110495;1242;59703;-78
2023/04/14 07:56:01;;;;;;;;;;;;;;;16.24;49.32;96136.25;110650;1238;71348;-78
2023/04/14 07:58:30;;;;;;;;;;;;;;;16.83;48.77;96135.67;110576;1241;69072;-76
2023/04/14 08:00:58;;;;;;;;;;;;;;;17.56;47.53;96134.11;110502;1241;69242;-77
2023/04/14 08:03:27;;;;;;;;;;;;;;;18.27;46.39;96131.06;110722;1238;59743;-77
2023/04/14 08:05:56;;;;;;;;;;;;;;;18.87;43.91;96126.24;110657;1238;60073;-77
2023/04/14 08:08:25;;;;;;;;;;;;;;;19.41;42.26;96118.08;110616;1241;70619;-78
2023/04/14 08:10:53;;;;;;;;;;;;;;;19.82;41.33;96114.41;110644;1238;69191;-77
2023/04/14 08:13:22;;;;;;;;;;;;;;;20.37;40.94;96108.31;110563;1238;70107;-77
2023/04/14 08:15:50;;;;;;;;;;;;;;;20.61;40.41;96112.45;110701;1240;59694;-77
2023/04/14 08:18:19;;;;;;;;;;;;;;;20.69;39.94;96112.72;110686;1241;59660;-74
2023/04/14 08:20:48;;;;;;;;;;;;;;;20.80;37.88;96106.83;110861;1239;70895;-78
2023/04/14 08:23:19;;;;;;;;;;;;;;;20.86;37.86;96098.73;110884;1237;67585;-76
2023/04/14 08:25:48;;;;;;;;;;;;;;;20.94;38.33;96096.54;110701;1238;68303;-76
2023/04/14 08:28:17;;;;;;;;;;;;;;;21.09;37.58;96093.84;110668;1238;59661;-76
2023/04/14 08:30:49;;;;;;;;;;;;;;;21.07;36.98;96098.95;110574;1238;59724;-77
2023/04/14 08:33:17;;;;;;;;;;;;;;;20.98;37.52;96100.62;110730;1238;71826;-76
2023/04/14 08:35:46;;;;;;;;;;;;;;;20.91;37.15;96099.33;110672;1239;68556;-76
2023/04/14 08:38:27;;;;;;;;;;;;;;;20.61;36.23;96101.09;110630;1237;69835;-76
2023/04/14 08:40:59;;;;;;;;;;;;;;;20.39;36.59;96101.35;110654;1239;60027;-77
2023/04/14 08:43:28;;;;;;;;;;;;;;;20.27;36.58;96104.75;110720;1237;59743;-77
2023/04/14 08:45:59;;;;;;;;;;;;;;;20.44;37.13;96101.20;110859;1238;70787;-78
2023/04/14 08:48:29;;;;;;;;;;;;;;;20.75;37.29;96098.33;110804;1241;69188;-78
2023/04/14 08:51:04;;;;;;;;;;;;;;;21.22;37.13;96096.51;111090;1239;69846;-79
2023/04/14 08:53:34;;;;;;;;;;;;;;;21.60;36.50;96089.29;110690;1239;59756;-76
2023/04/14 08:56:03;;;;;;;;;;;;;;;21.77;35.64;96084.65;110751;1237;59751;-78
2023/04/14 08:58:32;;;;;;;;;;;;;;;21.92;36.54;96080.47;110676;1238;70594;-77
2023/04/14 09:01:02;;;;;;;;;;;;;;;22.16;36.55;96075.77;110581;1238;69813;-77
2023/04/14 09:03:31;;;;;;;;;;;;;;;22.32;35.36;96065.86;110762;1237;69240;-77
2023/04/14 09:06:01;;;;;;;;;;;;;;;22.40;35.35;96065.47;110749;1238;59639;-78
2023/04/14 09:08:32;;;;;;;;;;;;;;;22.69;34.75;96063.68;110699;1238;59740;-79
2023/04/14 09:11:02;;;;;;;;;;;;;;;22.65;34.07;96071.55;110608;1237;71386;-79
2023/04/14 09:13:31;;;;;;;;;;;;;;;22.50;34.05;96068.00;110665;1239;69183;-79
2023/04/14 09:16:00;;;;;;;;;;;;;;;22.43;33.57;96065.82;110663;1239;69202;-80
2023/04/14 09:18:30;;;;;;;;;;;;;;;22.33;34.36;96060.61;110600;1239;59680;-81
2023/04/14 09:21:03;;;;;;;;;;;;;;;22.28;33.87;96060.77;110632;1239;59764;-79
2023/04/14 09:23:52;;;;;;;;;;;;;;;22.05;33.43;96056.92;110644;1241;71863;-78
2023/04/14 09:26:21;;;;;;;;;;;;;;;21.68;33.44;96056.96;110695;1238;69068;-79
2023/04/14 09:28:51;;;;;;;;;;;;;;;21.52;34.10;96058.69;110313;1238;375676;-79
2023/04/14 09:31:19;;;;;;;;;;;;;;;21.45;34.88;96054.52;110585;1241;59781;-79
2023/04/14 09:33:51;;;;;;;;;;;;;;;21.39;35.16;96042.41;110601;1238;59700;-79
2023/04/14 09:36:21;;;;;;;;;;;;;;;21.26;35.55;96038.76;110657;1246;71455;-80
2023/04/14 09:38:50;;;;;;;;;;;;;;;21.08;35.51;96032.70;110699;1237;69797;-80
2023/04/14 09:41:24;;;;;;;;;;;;;;;21.00;36.32;96035.51;110627;1238;69666;-80
2023/04/14 09:43:53;;;;;;;;;;;;;;;20.96;35.76;96033.84;110735;1239;59726;-80
2023/04/14 09:48:15;;;;;;;3.70;2.70;;;;;;;20.92;35.84;96018.45;107071;1277;596602;-78
2023/04/14 09:51:12;;;;;;;3.50;2.60;;;;;;;20.88;36.46;96012.46;111113;1251;57562;-77
2023/04/14 09:53:41;;;;;;;4.70;3.10;;;;;;;21.04;36.15;96010.20;109427;1252;57756;-77
2023/04/14 09:56:11;;;;;;;3.80;2.80;;;;;;;21.19;36.23;96006.61;109519;1252;69587;-75
2023/04/14 09:58:43;;;;;;;4.50;2.60;;;;;;;21.29;36.29;95999.25;109451;1253;68329;-76
2023/04/14 10:01:18;;;;;;;6.30;2.90;;;;;;;21.34;35.69;95992.66;109249;1254;406425;-76
2023/04/14 10:03:48;;;;;;;3.80;2.90;;;;;;;21.24;35.65;95984.48;109585;1251;57640;-78
2023/04/14 10:06:22;;;;;;;3.30;3.00;;;;;;;21.16;36.25;95980.71;109677;1252;57719;-76
2023/04/14 10:08:53;;;;;;;3.70;2.50;;;;;;;21.33;36.40;95976.48;109568;1251;69425;-76
2023/04/14 10:11:26;;;;;;;4.50;2.90;;;;;;;21.58;36.00;95973.36;109582;1251;69674;-76
2023/04/14 10:14:01;;;;;;;4.20;2.60;;;;;;;21.95;36.09;95974.85;109565;1251;69119;-76
2023/04/14 10:16:30;;;;;;;4.40;2.70;;;;;;;22.39;35.39;95976.27;110706;1241;58138;-75
2023/04/14 10:19:00;;;;;;;3.20;2.60;;;;;;;22.77;33.97;95977.14;110676;1240;58063;-76
2023/04/14 10:21:31;;;;;;;3.40;2.70;;;;;;;23.18;33.66;95979.43;110525;1241;69220;-75
2023/04/14 10:24:00;;;;;;;5.00;2.60;;;;;;;23.37;32.92;95976.60;110608;1237;69191;-76
2023/04/14 10:26:29;;;;;;;3.30;2.80;;;;;;;23.44;32.47;95977.45;110681;1239;69367;-76
2023/04/14 10:29:00;;;;;;;4.70;2.70;;;;;;;23.58;32.51;95975.94;110517;1239;58507;-74
2023/04/14 10:31:44;;;;;;;3.40;2.90;;;;;;;23.75;32.20;95975.61;110649;1239;58053;-75
2023/04/14 10:34:14;;;;;;;3.60;2.30;;;;;;;23.96;31.82;95975.73;110502;1247;69772;-76
2023/04/14 10:36:43;;;;;;;3.20;2.70;;;;;;;24.26;31.50;95969.02;110632;1240;69206;-75
2023/04/14 10:39:12;;;;;;;3.80;2.40;;;;;;;24.29;29.55;95974.39;110500;1240;69076;-76
2023/04/14 10:41:47;;;;;;;3.60;2.50;;;;;;;24.15;29.43;95981.63;110531;1238;58052;-75
2023/04/14 10:44:27;;;;;;;2.80;2.40;;;;;;;23.89;29.95;95986.73;110554;1241;58099;-76
2023/04/14 10:46:57;;;;;;;3.90;2.50;;;;;;;23.33;30.82;95989.05;110623;1240;70188;-74
2023/04/14 10:49:40;;;;;;;2.90;2.30;;;;;;;22.93;31.27;95990.52;110650;1240;69274;-77
2023/04/14 10:52:15;;;;;;;4.30;2.50;;;;;;;22.58;31.79;95997.46;110679;1244;69286;-76
2023/04/14 10:55:06;;;;;;;3.70;2.40;;;;;;;22.23;31.79;96009.07;110707;1241;58133;-77
2023/04/14 10:57:42;;;;;;;4.70;3.00;;;;;;;21.81;32.52;96008.27;112284;1239;56614;-74
2023/04/14 11:00:36;;;;;;;4.10;2.80;;;;;;;21.38;33.07;96010.83;111067;1239;69084;-74
2023/04/14 11:03:13;;;;;;;3.90;2.70;;;;;;;20.97;33.57;96007.12;110728;1241;69624;-74
2023/04/14 11:05:47;;;;;;;3.70;2.90;;;;;;;20.75;34.63;96010.80;110595;1243;69894;-74
2023/04/14 11:08:23;;;;;;;4.10;2.90;;;;;;;20.57;34.72;96005.50;110556;1241;58147;-74
2023/04/14 11:11:03;;;;;;;3.40;2.60;;;;;;;20.29;34.39;96011.42;110575;1241;58082;-73
2023/04/14 11:13:34;;;;;;;3.50;2.90;;;;;;;19.98;34.71;96004.40;110537;1238;69752;-75
2023/04/14 11:16:05;;;;;;;3.90;3.10;;;;;;;19.87;35.35;95997.86;110528;1242;69349;-75
2023/04/14 11:18:41;;;;;;;6.20;3.10;;;;;;;19.73;36.04;95993.70;110707;1240;69274;-75
2023/04/14 11:21:16;;;;;;;3.50;2.70;;;;;;;19.64;36.05;95987.81;110493;1238;58391;-76
2023/04/14 11:23:46;;;;;;;3.80;2.60;;;;;;;19.51;36.25;95984.52;110581;1241;58068;-76
2023/04/14 11:26:15;;;;;;;3.40;2.40;;;;;;;19.38;36.11;95987.05;110495;1239;70345;-75
2023/04/14 11:28:45;;;;;;;4.00;2.80;;;;;;;19.32;36.79;95993.48;110568;1242;69227;-76
2023/04/14 11:31:18;;;;;;;3.40;2.80;;;;;;;19.31;37.22;95993.02;110701;1240;68508;-75
2023/04/14 11:33:50;;;;;;;3.20;2.80;;;;;;;19.32;37.65;95995.41;110631;1240;58143;-76
2023/04/14 11:36:19;;;;;;;2.90;2.20;;;;;;;19.26;37.63;95997.60;110530;1241;58065;-77
2023/04/14 11:38:48;;;;;;;3.10;2.60;;;;;;;19.21;38.02;95992.80;110671;1241;70357;-76
2023/04/14 11:41:19;;;;;;;3.80;2.70;;;;;;;19.19;38.27;95993.38;110711;1240;69565;-76
2023/04/14 11:43:48;;;;;;;4.00;2.70;;;;;;;19.17;38.40;95989.77;110581;1240;69272;-74
2023/04/14 11:46:20;;;;;;;3.70;2.60;;;;;;;19.17;38.60;95987.13;110593;1240;58068;-77
2023/04/14 11:48:56;;;;;;;4.00;2.30;;;;;;;19.19;38.64;95982.57;110652;1242;58037;-75
2023/04/14 11:51:31;;;;;;;4.10;2.30;;;;;;;19.23;38.67;95982.59;110585;1242;69696;-76
2023/04/14 11:54:00;;;;;;;3.00;2.40;;;;;;;19.27;38.45;95979.58;110709;1240;69225;-75
2023/04/14 11:56:30;;;;;;;2.30;2.00;;;;;;;19.27;38.59;95974.77;110641;1242;69917;-76
2023/04/14 11:59:04;;;;;;;3.10;2.10;;;;;;;19.25;38.87;95971.98;110707;1239;58057;-77
2023/04/14 12:01:32;;;;;;;3.50;2.70;;;;;;;19.23;38.84;95971.66;110630;1238;58081;-77
2023/04/14 12:04:05;;;;;;;4.20;2.80;;;;;;;19.11;39.09;95974.31;110980;1241;69735;-76
2023/04/14 12:06:37;;;;;;;3.60;3.10;;;;;;;19.07;39.52;95976.75;112263;1239;69006;-76
2023/04/14 12:09:08;;;;;;;4.60;3.10;;;;;;;19.02;39.60;95974.77;110625;1243;69277;-75
2023/04/14 12:11:37;;;;;;;2.90;2.30;;;;;;;18.93;39.64;95969.41;110654;1240;58042;-76
2023/04/14 12:14:07;;;;;;;2.70;2.50;;;;;;;18.90;39.73;95965.73;110597;1242;58059;-77
2023/04/14 12:16:36;;;;;;;3.20;2.30;;;;;;;18.90;39.73;95962.93;110576;1240;70155;-77
2023/04/14 12:19:04;;;;;;;4.00;2.60;;;;;;;18.88;39.51;95962.14;110565;1240;68589;-75
2023/04/14 12:21:33;;;;;;;4.20;2.50;;;;;;;18.82;39.99;95962.40;110655;1239;69755;-76
2023/04/14 12:24:01;;;;;;;4.80;2.70;;;;;;;18.79;40.50;95964.14;110589;1240;58102;-75
2023/04/14 12:26:31;;;;;;;4.10;2.80;;;;;;;18.78;40.62;95958.29;110680;1242;58464;-75
2023/04/14 12:29:00;;;;;;;;;;;;;;;18.75;41.84;95958.64;110519;1242;70355;-75
2023/04/14 12:31:30;;;;;;;5.10;2.80;;;;;;;18.71;41.87;95951.25;110618;1238;69822;-76
2023/04/14 12:34:02;;;;;;;3.60;2.50;;;;;;;18.69;41.18;95954.83;110715;1238;69355;-75
2023/04/14 12:36:31;;;;;;;3.90;2.90;;;;;;;18.70;41.29;95958.16;110529;1241;58120;-78
2023/04/14 12:39:20;;;;;;;5.20;3.30;;;;;;;18.65;40.52;95958.09;110575;1242;58067;-77
2023/04/14 12:41:49;;;;;;;4.10;3.30;;;;;;;18.57;40.46;95955.84;110676;1241;70151;-77
2023/04/14 12:44:20;;;;;;;3.80;2.70;;;;;;;18.55;40.99;95956.32;110581;1242;69807;-78
2023/04/14 12:46:51;;;;;;;3.50;2.80;;;;;;;18.53;41.24;95957.21;110646;1242;69272;-79